sensor_id;sensor_type;location;lat;lon;timestamp;pressure;altitude;pressure_sealevel;temperature;humidity
44992;BME280;56865;51.618;7.406;2023-11-19T00:19:15;100131.94;;;15.12;100.00
44992;BME280;56865;51.618;7.406;2023-11-19T00:22:07;100117.38;;;14.97;100.00
44992;BME280;56865;51.618;7.406;2023-11-19T00:33:02;100096.81;;;15.25;100.00
44992;BME280;56865;51.618;7.406;2023-11-19T00:41:34;100086.53;;;15.20;100.00
44992;BME280;56865;51.618;7.406;2023-11-19T00:44:03;100083.97;;;15.22;100.00
44992;BME280;56865;51.618;7.406;2023-11-19T00:46:33;100083.16;;;14.87;100.00
44992;BME280;56865;51.618;7.406;2023-11-19T00:49:03;100077.97;;;15.37;100.00
44992;BME280;56865;51.618;7.406;2023-11-19T00:51:33;100071.94;;;15.52;100.00
44992;BME280;56865;51.618;7.406;2023-11-19T00:54:03;100071.97;;;15.44;100.00
44992;BME280;56865;51.618;7.406;2023-11-19T00:56:36;100069.38;;;15.61;100.00
44992;BME280;56865;51.618;7.406;2023-11-19T00:59:06;100059.91;;;15.63;100.00
44992;BME280;56865;51.618;7.406;2023-11-19T01:01:36;100059.94;;;15.58;100.00
44992;BME280;56865;51.618;7.406;2023-11-19T01:04:05;100061.63;;;15.63;100.00
44992;BME280;56865;51.618;7.406;2023-11-19T01:06:35;100056.56;;;15.39;100.00
44992;BME280;56865;51.618;7.406;2023-11-19T01:09:14;100053.09;;;15.53;100.00
44992;BME280;56865;51.618;7.406;2023-11-19T01:11:47;100045.34;;;15.65;100.00
44992;BME280;56865;51.618;7.406;2023-11-19T01:14:19;100042.81;;;15.64;100.00
44992;BME280;56865;51.618;7.406;2023-11-19T01:16:49;100051.34;;;15.64;100.00
44992;BME280;56865;51.618;7.406;2023-11-19T01:19:29;100053.88;;;15.76;100.00
44992;BME280;56865;51.618;7.406;2023-11-19T01:22:04;100051.34;;;15.67;100.00
44992;BME280;56865;51.618;7.406;2023-11-19T01:24:42;100064.97;;;15.96;100.00
44992;BME280;56865;51.618;7.406;2023-11-19T01:27:27;100063.28;;;15.88;100.00
44992;BME280;56865;51.618;7.406;2023-11-19T01:29:57;100061.59;;;15.81;100.00
44992;BME280;56865;51.618;7.406;2023-11-19T01:32:28;100069.22;;;16.04;100.00
44992;BME280;56865;51.618;7.406;2023-11-19T01:34:58;100060.75;;;15.76;100.00
44992;BME280;56865;51.618;7.406;2023-11-19T01:37:28;100061.56;;;15.95;100.00
44992;BME280;56865;51.618;7.406;2023-11-19T01:39:58;100044.44;;;15.77;100.00
44992;BME280;56865;51.618;7.406;2023-11-19T01:42:32;100047.00;;;15.88;100.00
44992;BME280;56865;51.618;7.406;2023-11-19T01:45:07;100043.50;;;16.03;100.00
44992;BME280;56865;51.618;7.406;2023-11-19T01:47:37;100046.03;;;16.12;100.00
44992;BME280;56865;51.618;7.406;2023-11-19T01:50:07;100039.16;;;16.19;100.00
44992;BME280;56865;51.618;7.406;2023-11-19T01:52:37;100028.00;;;16.14;100.00
44992;BME280;56865;51.618;7.406;2023-11-19T01:55:07;100024.56;;;16.18;100.00
44992;BME280;56865;51.618;7.406;2023-11-19T01:57:41;100027.13;;;16.21;100.00
44992;BME280;56865;51.618;7.406;2023-11-19T02:00:11;100019.41;;;16.19;100.00
44992;BME280;56865;51.618;7.406;2023-11-19T02:02:42;100020.31;;;16.15;100.00
44992;BME280;56865;51.618;7.406;2023-11-19T02:05:13;100021.09;;;16.28;100.00
44992;BME280;56865;51.618;7.406;2023-11-19T02:07:43;100013.34;;;16.33;100.00
44992;BME280;56865;51.618;7.406;2023-11-19T02:10:12;100012.44;;;16.34;100.00
44992;BME280;56865;51.618;7.406;2023-11-19T02:12:46;100010.06;;;16.07;100.00
44992;BME280;56865;51.618;7.406;2023-11-19T02:15:16;100008.34;;;16.08;100.00
44992;BME280;56865;51.618;7.406;2023-11-19T02:17:46;100004.88;;;16.12;100.00
44992;BME280;56865;51.618;7.406;2023-11-19T02:20:16;99995.41;;;16.20;100.00
44992;BME280;56865;51.618;7.406;2023-11-19T02:22:47;99995.25;;;16.42;100.00
44992;BME280;56865;51.618;7.406;2023-11-19T02:25:19;99996.44;;;15.96;100.00
44992;BME280;56865;51.618;7.406;2023-11-19T02:27:54;100003.03;;;16.31;100.00
44992;BME280;56865;51.618;7.406;2023-11-19T02:30:26;99991.19;;;16.13;100.00
44992;BME280;56865;51.618;7.406;2023-11-19T02:32:56;99992.97;;;16.00;100.00
44992;BME280;56865;51.618;7.406;2023-11-19T02:35:30;99990.25;;;16.27;100.00
44992;BME280;56865;51.618;7.406;2023-11-19T02:38:00;99992.13;;;16.01;100.00
44992;BME280;56865;51.618;7.406;2023-11-19T02:40:30;99990.38;;;16.02;100.00
44992;BME280;56865;51.618;7.406;2023-11-19T02:43:02;99980.72;;;16.38;100.00
44992;BME280;56865;51.618;7.406;2023-11-19T02:45:32;99973.75;;;16.51;100.00
44992;BME280;56865;51.618;7.406;2023-11-19T02:48:02;99968.69;;;16.40;100.00
44992;BME280;56865;51.618;7.406;2023-11-19T02:50:32;99965.19;;;16.52;100.00
44992;BME280;56865;51.618;7.406;2023-11-19T02:53:03;99970.56;;;16.21;100.00
44992;BME280;56865;51.618;7.406;2023-11-19T02:55:33;99983.22;;;16.47;100.00
44992;BME280;56865;51.618;7.406;2023-11-19T02:58:07;99977.88;;;16.72;100.00
44992;BME280;56865;51.618;7.406;2023-11-19T03:00:46;99984.63;;;16.82;100.00
44992;BME280;56865;51.618;7.406;2023-11-19T03:03:56;99968.63;;;16.46;100.00
44992;BME280;56865;51.618;7.406;2023-11-19T03:09:59;99970.50;;;16.27;100.00
44992;BME280;56865;51.618;7.406;2023-11-19T03:19:21;99964.53;;;16.22;100.00
44992;BME280;56865;51.618;7.406;2023-11-19T04:11:29;99975.53;;;16.44;100.00
44992;BME280;56865;51.618;7.406;2023-11-19T04:13:59;99977.34;;;16.30;100.00
44992;BME280;56865;51.618;7.406;2023-11-19T04:16:28;99978.06;;;16.47;100.00
44992;BME280;56865;51.618;7.406;2023-11-19T04:18:58;99967.78;;;16.47;100.00
44992;BME280;56865;51.618;7.406;2023-11-19T04:21:28;99974.63;;;16.48;100.00
44992;BME280;56865;51.618;7.406;2023-11-19T04:23:57;99970.38;;;16.42;100.00
44992;BME280;56865;51.618;7.406;2023-11-19T04:26:30;99984.88;;;16.51;100.00
44992;BME280;56865;51.618;7.406;2023-11-19T04:29:00;99978.63;;;16.82;100.00
44992;BME280;56865;51.618;7.406;2023-11-19T04:31:30;99974.59;;;16.51;100.00
44992;BME280;56865;51.618;7.406;2023-11-19T04:34:00;99983.25;;;16.41;100.00
44992;BME280;56865;51.618;7.406;2023-11-19T04:36:30;99979.63;;;16.64;100.00
44992;BME280;56865;51.618;7.406;2023-11-19T04:39:00;99981.44;;;16.52;100.00
44992;BME280;56865;51.618;7.406;2023-11-19T04:41:33;99987.34;;;16.65;100.00
44992;BME280;56865;51.618;7.406;2023-11-19T04:44:02;99991.84;;;16.41;100.00
44992;BME280;56865;51.618;7.406;2023-11-19T04:46:32;99983.09;;;16.64;100.00
44992;BME280;56865;51.618;7.406;2023-11-19T04:49:03;99980.75;;;16.33;100.00
44992;BME280;56865;51.618;7.406;2023-11-19T04:51:37;99986.84;;;16.21;100.00
44992;BME280;56865;51.618;7.406;2023-11-19T04:54:07;99990.13;;;16.42;100.00
44992;BME280;56865;51.618;7.406;2023-11-19T04:56:40;99974.78;;;16.30;100.00
44992;BME280;56865;51.618;7.406;2023-11-19T04:59:09;99979.28;;;15.98;100.00
44992;BME280;56865;51.618;7.406;2023-11-19T05:01:39;99982.66;;;16.05;100.00
44992;BME280;56865;51.618;7.406;2023-11-19T05:04:09;99988.53;;;16.25;100.00
44992;BME280;56865;51.618;7.406;2023-11-19T05:06:38;99984.31;;;16.15;100.00
44992;BME280;56865;51.618;7.406;2023-11-19T05:09:08;99986.00;;;16.15;100.00
44992;BME280;56865;51.618;7.406;2023-11-19T05:11:42;99995.44;;;16.19;100.00
44992;BME280;56865;51.618;7.406;2023-11-19T05:14:15;99991.97;;;16.24;100.00
44992;BME280;56865;51.618;7.406;2023-11-19T05:16:45;99992.03;;;16.15;100.00
44992;BME280;56865;51.618;7.406;2023-11-19T05:19:15;99981.88;;;15.95;100.00
44992;BME280;56865;51.618;7.406;2023-11-19T05:21:45;99991.44;;;15.59;100.00
44992;BME280;56865;51.618;7.406;2023-11-19T05:24:18;99999.06;;;15.73;100.00
44992;BME280;56865;51.618;7.406;2023-11-19T05:26:51;99994.75;;;15.86;100.00
44992;BME280;56865;51.618;7.406;2023-11-19T05:29:21;100000.03;;;15.46;100.00
44992;BME280;56865;51.618;7.406;2023-11-19T05:31:51;100005.06;;;15.76;100.00
44992;BME280;56865;51.618;7.406;2023-11-19T05:34:22;100000.88;;;15.54;100.00
44992;BME280;56865;51.618;7.406;2023-11-19T05:36:51;99995.63;;;15.80;100.00
44992;BME280;56865;51.618;7.406;2023-11-19T05:39:21;99990.50;;;15.71;100.00
44992;BME280;56865;51.618;7.406;2023-11-19T05:41:54;99992.97;;;16.02;100.00
44992;BME280;56865;51.618;7.406;2023-11-19T05:44:24;99987.88;;;15.91;100.00
44992;BME280;56865;51.618;7.406;2023-11-19T05:46:54;99996.41;;;15.95;100.00
44992;BME280;56865;51.618;7.406;2023-11-19T05:49:25;99998.28;;;15.60;100.00
44992;BME280;56865;51.618;7.406;2023-11-19T05:51:55;99987.06;;;15.78;100.00
44992;BME280;56865;51.618;7.406;2023-11-19T05:54:25;99994.91;;;15.39;100.00
44992;BME280;56865;51.618;7.406;2023-11-19T06:00:17;99992.31;;;15.56;100.00
44992;BME280;56865;51.618;7.406;2023-11-19T06:02:51;99989.69;;;15.67;100.00
44992;BME280;56865;51.618;7.406;2023-11-19T06:05:25;100002.47;;;15.87;100.00
44992;BME280;56865;51.618;7.406;2023-11-19T06:07:58;99999.91;;;15.84;100.00
44992;BME280;56865;51.618;7.406;2023-11-19T06:10:29;99995.75;;;15.48;100.00
44992;BME280;56865;51.618;7.406;2023-11-19T06:13:00;99998.28;;;15.57;100.00
44992;BME280;56865;51.618;7.406;2023-11-19T06:15:34;100001.72;;;15.57;100.00
44992;BME280;56865;51.618;7.406;2023-11-19T06:18:04;100006.06;;;15.31;100.00
44992;BME280;56865;51.618;7.406;2023-11-19T06:20:34;100013.72;;;15.55;100.00
44992;BME280;56865;51.618;7.406;2023-11-19T06:23:07;100014.56;;;15.57;100.00
44992;BME280;56865;51.618;7.406;2023-11-19T06:25:40;100019.69;;;15.59;100.00
44992;BME280;56865;51.618;7.406;2023-11-19T06:28:14;100019.72;;;15.48;100.00
44992;BME280;56865;51.618;7.406;2023-11-19T06:34:17;100015.44;;;15.55;100.00
44992;BME280;56865;51.618;7.406;2023-11-19T06:36:48;100012.91;;;15.39;100.00
44992;BME280;56865;51.618;7.406;2023-11-19T06:39:20;100009.47;;;15.39;100.00
44992;BME280;56865;51.618;7.406;2023-11-19T06:41:52;100010.34;;;15.42;100.00
44992;BME280;56865;51.618;7.406;2023-11-19T06:44:23;100018.88;;;15.41;100.00
44992;BME280;56865;51.618;7.406;2023-11-19T06:46:54;100020.56;;;15.56;100.00
44992;BME280;56865;51.618;7.406;2023-11-19T06:49:31;100028.22;;;15.64;100.00
44992;BME280;56865;51.618;7.406;2023-11-19T06:52:04;100030.75;;;15.73;100.00
44992;BME280;56865;51.618;7.406;2023-11-19T06:54:36;100034.22;;;15.72;100.00
44992;BME280;56865;51.618;7.406;2023-11-19T06:57:08;100035.94;;;15.66;100.00
44992;BME280;56865;51.618;7.406;2023-11-19T06:59:40;100042.84;;;15.47;100.00
44992;BME280;56865;51.618;7.406;2023-11-19T07:02:11;100045.38;;;15.57;100.00
44992;BME280;56865;51.618;7.406;2023-11-19T07:04:48;100052.16;;;15.77;100.00
44992;BME280;56865;51.618;7.406;2023-11-19T07:07:26;100052.22;;;15.63;100.00
44992;BME280;56865;51.618;7.406;2023-11-19T07:10:01;100057.41;;;15.52;100.00
44992;BME280;56865;51.618;7.406;2023-11-19T07:12:39;100055.69;;;15.45;100.00
44992;BME280;56865;51.618;7.406;2023-11-19T07:15:19;100047.13;;;15.43;100.00
44992;BME280;56865;51.618;7.406;2023-11-19T07:17:50;100055.69;;;15.51;100.00
44992;BME280;56865;51.618;7.406;2023-11-19T07:20:27;100061.69;;;15.46;100.00
44992;BME280;56865;51.618;7.406;2023-11-19T07:23:10;100059.97;;;15.49;100.00
44992;BME280;56865;51.618;7.406;2023-11-19T07:25:46;100062.50;;;15.62;100.00
44992;BME280;56865;51.618;7.406;2023-11-19T07:28:22;100056.53;;;15.56;100.00
44992;BME280;56865;51.618;7.406;2023-11-19T07:30:53;100063.28;;;15.79;100.00
44992;BME280;56865;51.618;7.406;2023-11-19T07:33:25;100071.84;;;15.89;100.00
44992;BME280;56865;51.618;7.406;2023-11-19T07:36:00;100088.16;;;15.74;100.00
44992;BME280;56865;51.618;7.406;2023-11-19T07:38:30;100082.22;;;15.61;100.00
44992;BME280;56865;51.618;7.406;2023-11-19T07:41:03;100082.19;;;15.67;100.00
44992;BME280;56865;51.618;7.406;2023-11-19T07:43:34;100076.22;;;15.54;100.00
44992;BME280;56865;51.618;7.406;2023-11-19T07:46:04;100096.69;;;15.79;100.00
44992;BME280;56865;51.618;7.406;2023-11-19T07:48:36;100079.66;;;15.39;100.00
44992;BME280;56865;51.618;7.406;2023-11-19T07:51:13;100078.81;;;15.45;100.00
44992;BME280;56865;51.618;7.406;2023-11-19T07:53:51;100088.22;;;15.41;100.00
44992;BME280;56865;51.618;7.406;2023-11-19T07:56:22;100100.25;;;15.35;100.00
44992;BME280;56865;51.618;7.406;2023-11-19T07:58:56;100092.47;;;15.56;100.00
44992;BME280;56865;51.618;7.406;2023-11-19T08:01:28;100098.44;;;15.63;100.00
44992;BME280;56865;51.618;7.406;2023-11-19T08:04:05;100090.72;;;15.74;100.00
44992;BME280;56865;51.618;7.406;2023-11-19T08:06:44;100089.03;;;15.59;100.00
44992;BME280;56865;51.618;7.406;2023-11-19T08:09:19;100091.56;;;15.82;100.00
44992;BME280;56865;51.618;7.406;2023-11-19T08:11:58;100103.63;;;15.52;100.00
44992;BME280;56865;51.618;7.406;2023-11-19T08:14:30;100121.56;;;15.68;100.00
44992;BME280;56865;51.618;7.406;2023-11-19T08:17:03;100124.09;;;15.80;100.00
44992;BME280;56865;51.618;7.406;2023-11-19T08:19:41;100118.13;;;15.87;100.00
44992;BME280;56865;51.618;7.406;2023-11-19T08:22:19;100118.97;;;15.71;100.00
44992;BME280;56865;51.618;7.406;2023-11-19T08:24:56;100124.97;;;15.68;100.00
44992;BME280;56865;51.618;7.406;2023-11-19T08:27:31;100121.63;;;15.52;100.00
44992;BME280;56865;51.618;7.406;2023-11-19T08:30:10;100118.19;;;15.55;100.00
44992;BME280;56865;51.618;7.406;2023-11-19T08:32:47;100134.44;;;15.55;100.00
44992;BME280;56865;51.618;7.406;2023-11-19T08:35:25;100124.16;;;15.60;100.00
44992;BME280;56865;51.618;7.406;2023-11-19T08:38:08;100126.72;;;15.68;100.00
44992;BME280;56865;51.618;7.406;2023-11-19T08:40:57;100134.44;;;15.65;100.00
44992;BME280;56865;51.618;7.406;2023-11-19T08:43:40;100131.84;;;15.74;100.00
44992;BME280;56865;51.618;7.406;2023-11-19T08:46:19;100127.56;;;15.73;100.00
44992;BME280;56865;51.618;7.406;2023-11-19T08:48:52;100121.47;;;16.06;100.00
44992;BME280;56865;51.618;7.406;2023-11-19T08:59:19;100131.81;;;15.75;100.00
44992;BME280;56865;51.618;7.406;2023-11-19T09:02:03;100124.16;;;15.55;100.00
44992;BME280;56865;51.618;7.406;2023-11-19T09:04:53;100128.34;;;16.03;100.00
44992;BME280;56865;51.618;7.406;2023-11-19T09:07:41;100125.81;;;15.92;100.00
44992;BME280;56865;51.618;7.406;2023-11-19T09:13:10;100124.09;;;15.89;100.00
44992;BME280;56865;51.618;7.406;2023-11-19T09:19:05;100131.84;;;15.79;100.00
44992;BME280;56865;51.618;7.406;2023-11-19T09:21:38;100140.34;;;16.04;100.00
44992;BME280;56865;51.618;7.406;2023-11-19T09:24:17;100127.56;;;15.85;100.00
44992;BME280;56865;51.618;7.406;2023-11-19T09:27:18;100133.53;;;15.95;100.00
44992;BME280;56865;51.618;7.406;2023-11-19T09:30:11;100135.25;;;15.79;100.00
44992;BME280;56865;51.618;7.406;2023-11-19T09:32:55;100142.03;;;16.06;100.00
44992;BME280;56865;51.618;7.406;2023-11-19T09:35:47;100148.81;;;16.26;100.00
44992;BME280;56865;51.618;7.406;2023-11-19T09:38:59;100135.22;;;15.98;100.00
44992;BME280;56865;51.618;7.406;2023-11-19T09:41:49;100129.19;;;16.02;100.00
44992;BME280;56865;51.618;7.406;2023-11-19T09:44:38;100125.78;;;15.97;100.00
44992;BME280;56865;51.618;7.406;2023-11-19T09:50:08;100129.19;;;16.08;100.00
44992;BME280;56865;51.618;7.406;2023-11-19T09:52:49;100141.22;;;15.98;100.00
44992;BME280;56865;51.618;7.406;2023-11-19T09:55:31;100138.66;;;15.93;100.00
44992;BME280;56865;51.618;7.406;2023-11-19T09:58:28;100124.94;;;15.88;100.00
44992;BME280;56865;51.618;7.406;2023-11-19T10:01:23;100127.59;;;15.64;100.00
44992;BME280;56865;51.618;7.406;2023-11-19T10:03:55;100141.19;;;16.03;100.00
44992;BME280;56865;51.618;7.406;2023-11-19T10:06:27;100126.72;;;15.85;100.00
44992;BME280;56865;51.618;7.406;2023-11-19T10:08:57;100127.56;;;15.67;100.00
44992;BME280;56865;51.618;7.406;2023-11-19T10:11:27;100130.09;;;15.87;100.00
44992;BME280;56865;51.618;7.406;2023-11-19T10:13:57;100133.56;;;15.83;100.00
44992;BME280;56865;51.618;7.406;2023-11-19T10:16:29;100121.53;;;15.75;100.00
44992;BME280;56865;51.618;7.406;2023-11-19T10:19:00;100121.56;;;15.74;100.00
44992;BME280;56865;51.618;7.406;2023-11-19T10:21:35;100107.84;;;15.76;100.00
44992;BME280;56865;51.618;7.406;2023-11-19T10:24:05;100109.56;;;15.74;100.00
44992;BME280;56865;51.618;7.406;2023-11-19T10:26:35;100099.28;;;15.71;100.00
44992;BME280;56865;51.618;7.406;2023-11-19T10:29:28;100111.25;;;15.94;100.00
44992;BME280;56865;51.618;7.406;2023-11-19T10:32:02;100111.28;;;15.85;100.00
44992;BME280;56865;51.618;7.406;2023-11-19T10:34:49;100116.34;;;16.03;100.00
44992;BME280;56865;51.618;7.406;2023-11-19T10:37:33;100108.72;;;15.74;100.00
44992;BME280;56865;51.618;7.406;2023-11-19T10:40:07;100100.97;;;15.94;100.00
44992;BME280;56865;51.618;7.406;2023-11-19T10:42:40;100129.19;;;16.05;100.00
44992;BME280;56865;51.618;7.406;2023-11-19T10:45:21;100124.94;;;15.93;100.00
44992;BME280;56865;51.618;7.406;2023-11-19T10:48:00;100111.16;;;16.09;100.00
44992;BME280;56865;51.618;7.406;2023-11-19T10:50:33;100111.16;;;16.11;100.00
44992;BME280;56865;51.618;7.406;2023-11-19T10:53:06;100113.75;;;16.09;100.00
44992;BME280;56865;51.618;7.406;2023-11-19T10:55:37;100113.84;;;15.88;100.00
44992;BME280;56865;51.618;7.406;2023-11-19T10:58:08;100106.97;;;15.88;100.00
44992;BME280;56865;51.618;7.406;2023-11-19T11:00:39;100104.22;;;16.27;100.00
44992;BME280;56865;51.618;7.406;2023-11-19T11:03:24;100107.84;;;15.89;100.00
44992;BME280;56865;51.618;7.406;2023-11-19T11:06:03;100104.34;;;16.10;100.00
44992;BME280;56865;51.618;7.406;2023-11-19T11:08:36;100106.91;;;16.10;100.00
44992;BME280;56865;51.618;7.406;2023-11-19T11:11:07;100104.31;;;16.12;100.00
44992;BME280;56865;51.618;7.406;2023-11-19T11:13:37;100119.03;;;15.65;100.00
44992;BME280;56865;51.618;7.406;2023-11-19T11:16:11;100104.38;;;15.98;100.00
44992;BME280;56865;51.618;7.406;2023-11-19T11:18:42;100109.47;;;16.05;100.00
44992;BME280;56865;51.618;7.406;2023-11-19T11:21:17;100111.28;;;15.79;100.00
44992;BME280;56865;51.618;7.406;2023-11-19T11:23:56;100104.38;;;15.96;100.00
44992;BME280;56865;51.618;7.406;2023-11-19T11:29:14;100112.03;;;16.08;100.00
44992;BME280;56865;51.618;7.406;2023-11-19T11:31:48;100118.06;;;16.07;100.00
44992;BME280;56865;51.618;7.406;2023-11-19T11:37:10;100114.63;;;16.05;100.00
44992;BME280;56865;51.618;7.406;2023-11-19T11:39:49;100103.47;;;16.08;100.00
44992;BME280;56865;51.618;7.406;2023-11-19T11:45:04;100112.03;;;16.07;100.00
44992;BME280;56865;51.618;7.406;2023-11-19T11:50:17;100099.13;;;16.21;100.00
44992;BME280;56865;51.618;7.406;2023-11-19T11:55:36;100088.03;;;16.14;100.00
44992;BME280;56865;51.618;7.406;2023-11-19T11:58:06;100084.63;;;16.04;100.00
44992;BME280;56865;51.618;7.406;2023-11-19T12:00:36;100085.38;;;16.28;100.00
44992;BME280;56865;51.618;7.406;2023-11-19T12:03:07;100089.59;;;16.38;100.00
44992;BME280;56865;51.618;7.406;2023-11-19T12:05:38;100081.91;;;16.35;100.00
44992;BME280;56865;51.618;7.406;2023-11-19T12:08:11;100079.09;;;16.71;100.00
44992;BME280;56865;51.618;7.406;2023-11-19T12:10:46;100077.53;;;16.48;100.00
44992;BME280;56865;51.618;7.406;2023-11-19T12:13:17;100072.28;;;16.62;100.00
44992;BME280;56865;51.618;7.406;2023-11-19T12:16:06;100073.94;;;16.71;100.00
44992;BME280;56865;51.618;7.406;2023-11-19T12:18:37;100065.41;;;16.63;100.00
44992;BME280;56865;51.618;7.406;2023-11-19T12:21:35;100077.41;;;16.64;100.00
44992;BME280;56865;51.618;7.406;2023-11-19T12:25:01;100076.63;;;16.52;100.00
44992;BME280;56865;51.618;7.406;2023-11-19T12:28:17;100075.06;;;16.33;100.00
44992;BME280;56865;51.618;7.406;2023-11-19T12:31:18;100083.56;;;16.44;100.00
44992;BME280;56865;51.618;7.406;2023-11-19T12:34:12;100070.81;;;16.25;100.00
44992;BME280;56865;51.618;7.406;2023-11-19T12:36:42;100072.63;;;16.08;100.00
44992;BME280;56865;51.618;7.406;2023-11-19T12:39:11;100073.38;;;16.25;100.00
44992;BME280;56865;51.618;7.406;2023-11-19T12:41:49;100063.09;;;16.22;100.00
44992;BME280;56865;51.618;7.406;2023-11-19T12:44:22;100064.78;;;16.28;100.00
44992;BME280;56865;51.618;7.406;2023-11-19T12:47:00;100045.84;;;16.40;100.00
44992;BME280;56865;51.618;7.406;2023-11-19T12:49:31;100040.97;;;16.01;100.00
44992;BME280;56865;51.618;7.406;2023-11-19T12:52:02;100039.84;;;16.44;100.00
44992;BME280;56865;51.618;7.406;2023-11-19T12:54:33;100034.88;;;16.13;100.00
44992;BME280;56865;51.618;7.406;2023-11-19T12:57:04;100047.59;;;16.38;100.00
44992;BME280;56865;51.618;7.406;2023-11-19T13:02:51;100039.97;;;16.25;100.00
44992;BME280;56865;51.618;7.406;2023-11-19T13:05:34;100044.19;;;16.34;100.00
44992;BME280;56865;51.618;7.406;2023-11-19T13:08:16;100049.28;;;16.42;100.00
44992;BME280;56865;51.618;7.406;2023-11-19T13:16:36;100042.81;;;15.57;100.00
44992;BME280;56865;51.618;7.406;2023-11-19T13:33:50;100049.94;;;16.69;100.00
44992;BME280;56865;51.618;7.406;2023-11-19T13:36:36;100044.09;;;16.48;100.00
44992;BME280;56865;51.618;7.406;2023-11-19T13:39:12;100050.19;;;16.36;100.00
44992;BME280;56865;51.618;7.406;2023-11-19T13:41:51;100052.72;;;16.41;100.00
44992;BME280;56865;51.618;7.406;2023-11-19T13:44:39;100040.75;;;16.35;100.00
44992;BME280;56865;51.618;7.406;2023-11-19T13:47:14;100045.16;;;16.15;100.00
44992;BME280;56865;51.618;7.406;2023-11-19T13:49:57;100051.91;;;16.30;100.00
44992;BME280;56865;51.618;7.406;2023-11-19T13:52:36;100045.09;;;16.22;100.00
44992;BME280;56865;51.618;7.406;2023-11-19T13:55:13;100045.28;;;15.91;100.00
44992;BME280;56865;51.618;7.406;2023-11-19T13:57:46;100054.56;;;16.19;100.00
44992;BME280;56865;51.618;7.406;2023-11-19T14:00:27;100036.72;;;15.77;100.00
44992;BME280;56865;51.618;7.406;2023-11-19T14:03:09;100051.28;;;15.90;100.00
44992;BME280;56865;51.618;7.406;2023-11-19T14:05:47;100046.16;;;15.86;100.00
44992;BME280;56865;51.618;7.406;2023-11-19T14:08:22;100040.13;;;15.95;100.00
44992;BME280;56865;51.618;7.406;2023-11-19T14:10:54;100048.75;;;15.87;100.00
44992;BME280;56865;51.618;7.406;2023-11-19T14:13:28;100041.03;;;15.78;100.00
44992;BME280;56865;51.618;7.406;2023-11-19T14:16:06;100042.66;;;16.04;100.00
44992;BME280;56865;51.618;7.406;2023-11-19T14:18:44;100036.63;;;16.05;100.00
44992;BME280;56865;51.618;7.406;2023-11-19T14:21:21;100032.34;;;16.07;100.00
44992;BME280;56865;51.618;7.406;2023-11-19T14:23:54;100036.66;;;16.02;100.00
44992;BME280;56865;51.618;7.406;2023-11-19T14:26:28;100034.00;;;16.19;100.00
44992;BME280;56865;51.618;7.406;2023-11-19T14:29:01;100051.13;;;16.20;100.00
44992;BME280;56865;51.618;7.406;2023-11-19T14:31:35;100036.69;;;15.97;100.00
44992;BME280;56865;51.618;7.406;2023-11-19T14:34:11;100043.47;;;16.06;100.00
44992;BME280;56865;51.618;7.406;2023-11-19T14:36:45;100041.78;;;16.08;100.00
44992;BME280;56865;51.618;7.406;2023-11-19T14:39:21;100038.44;;;15.89;100.00
44992;BME280;56865;51.618;7.406;2023-11-19T14:41:59;100021.34;;;15.85;100.00
44992;BME280;56865;51.618;7.406;2023-11-19T14:44:31;100029.00;;;15.94;100.00
44992;BME280;56865;51.618;7.406;2023-11-19T14:47:00;100029.03;;;15.77;100.00
44992;BME280;56865;51.618;7.406;2023-11-19T14:49:31;100017.97;;;15.67;100.00
44992;BME280;56865;51.618;7.406;2023-11-19T14:52:03;100024.88;;;15.42;100.00
44992;BME280;56865;51.618;7.406;2023-11-19T14:54:36;100026.56;;;15.52;100.00
44992;BME280;56865;51.618;7.406;2023-11-19T14:57:06;100030.75;;;15.83;100.00
44992;BME280;56865;51.618;7.406;2023-11-19T14:59:36;100029.91;;;15.73;100.00
44992;BME280;56865;51.618;7.406;2023-11-19T15:02:06;100027.34;;;15.71;100.00
44992;BME280;56865;51.618;7.406;2023-11-19T15:04:36;100007.78;;;15.35;100.00
44992;BME280;56865;51.618;7.406;2023-11-19T15:07:09;100005.06;;;15.76;100.00
44992;BME280;56865;51.618;7.406;2023-11-19T15:09:39;100009.38;;;15.71;100.00
44992;BME280;56865;51.618;7.406;2023-11-19T15:12:09;100014.44;;;15.93;100.00
44992;BME280;56865;51.618;7.406;2023-11-19T15:14:38;100013.69;;;15.66;100.00
44992;BME280;56865;51.618;7.406;2023-11-19T15:17:09;100010.25;;;15.63;100.00
44992;BME280;56865;51.618;7.406;2023-11-19T15:19:39;100000.75;;;15.80;100.00
44992;BME280;56865;51.618;7.406;2023-11-19T15:22:11;100007.72;;;15.50;100.00
44992;BME280;56865;51.618;7.406;2023-11-19T15:24:41;100000.78;;;15.71;100.00
44992;BME280;56865;51.618;7.406;2023-11-19T15:27:11;100006.88;;;15.53;100.00
44992;BME280;56865;51.618;7.406;2023-11-19T15:29:41;100018.72;;;15.91;100.00
44992;BME280;56865;51.618;7.406;2023-11-19T15:32:11;100020.47;;;15.73;100.00
44992;BME280;56865;51.618;7.406;2023-11-19T15:34:38;100018.81;;;15.68;100.00
44992;BME280;56865;51.618;7.406;2023-11-19T15:37:08;100029.97;;;15.57;100.00
44992;BME280;56865;51.618;7.406;2023-11-19T15:39:42;100027.41;;;15.56;100.00
44992;BME280;56865;51.618;7.406;2023-11-19T15:42:13;100015.44;;;15.50;100.00
44992;BME280;56865;51.618;7.406;2023-11-19T15:44:43;100030.00;;;15.42;100.00
44992;BME280;56865;51.618;7.406;2023-11-19T15:47:13;100039.38;;;15.65;100.00
44992;BME280;56865;51.618;7.406;2023-11-19T15:49:43;100026.50;;;15.68;100.00
44992;BME280;56865;51.618;7.406;2023-11-19T15:52:15;100015.47;;;15.41;100.00
44992;BME280;56865;51.618;7.406;2023-11-19T15:54:47;100003.47;;;15.46;100.00